Terminal Aerodrome Forecast
Issued by NWS

Home | Current Version | Previous Version | Text Only | Print | Product List | Glossary On
Versions: 1 2 3 4 5 6 7 8 9 10 11 12 13 14 15
000
FTUS41 KBTV 272059 AAC
TAFMPV
TAF AMD
KMPV 272059Z 2721/2818 24011G18KT P6SM VCSH SCT070 BKN090
      TEMPO 2721/2722 5SM -SHRA BR BKN045 OVC060
     FM272300 22009KT P6SM SCT030 BKN040
     FM280100 19007KT P6SM VCSH BKN070
     FM280800 18005KT 3SM BR BKN150
     FM281200 21009KT P6SM VCSH SCT040 BKN100=

USA.gov is the U.S. government's official web portal to all federal, state and local government web resources and services.